createdAt,value
2022-10-18T00:01:18.616Z,14.70
2022-10-18T00:03:47.795Z,18.40
2022-10-18T00:06:16.133Z,19.42
2022-10-18T00:08:45.239Z,29.10
2022-10-18T00:11:13.763Z,29.85
2022-10-18T00:13:43.740Z,29.02
2022-10-18T00:16:17.748Z,36.60
2022-10-18T00:18:50.182Z,27.85
2022-10-18T00:21:27.380Z,30.48
2022-10-18T00:24:01.784Z,30.63
2022-10-18T00:26:39.637Z,25.25
2022-10-18T00:29:08.235Z,13.32
2022-10-18T00:31:39.537Z,10.32
2022-10-18T00:34:12.957Z,15.55
2022-10-18T00:36:51.754Z,13.90
2022-10-18T00:39:22.209Z,19.75
2022-10-18T00:41:52.417Z,17.45
2022-10-18T00:45:15.918Z,13.52
2022-10-18T00:47:51.559Z,15.90
2022-10-18T00:50:22.547Z,20.00
2022-10-18T00:52:58.362Z,14.82
2022-10-18T00:55:27.440Z,18.50
2022-10-18T00:57:56.866Z,28.40
2022-10-18T01:00:30.695Z,15.98
2022-10-18T01:03:00.664Z,9.30
2022-10-18T01:05:29.081Z,15.63
2022-10-18T01:08:14.999Z,20.30
2022-10-18T01:10:52.960Z,25.80
2022-10-18T01:13:37.012Z,20.83
2022-10-18T01:16:18.700Z,17.83
2022-10-18T01:18:54.652Z,16.63
2022-10-18T01:21:44.531Z,17.65
2022-10-18T01:24:56.043Z,14.30
2022-10-18T01:27:56.992Z,15.45
2022-10-18T01:30:42.969Z,21.33
2022-10-18T01:33:38.676Z,16.60
2022-10-18T01:36:18.135Z,20.63
2022-10-18T01:39:05.834Z,22.38
2022-10-18T01:41:37.181Z,27.40
2022-10-18T01:44:19.945Z,30.23
2022-10-18T01:46:51.099Z,26.08
2022-10-18T01:49:19.381Z,18.00
2022-10-18T01:52:03.071Z,20.13
2022-10-18T01:54:48.443Z,35.90
2022-10-18T01:57:24.839Z,24.02
2022-10-18T02:00:00.093Z,19.02
2022-10-18T02:02:43.018Z,21.30
2022-10-18T02:05:30.684Z,23.95
2022-10-18T02:08:22.871Z,17.23
2022-10-18T02:10:57.208Z,30.45
2022-10-18T02:13:31.393Z,30.42
2022-10-18T02:16:05.975Z,18.90
2022-10-18T02:18:42.844Z,21.42
2022-10-18T02:21:17.448Z,25.70
2022-10-18T02:23:47.659Z,18.33
2022-10-18T02:26:17.026Z,26.17
2022-10-18T02:28:46.133Z,16.95
2022-10-18T02:31:21.850Z,22.45
2022-10-18T02:33:58.172Z,10.65
2022-10-18T02:36:34.898Z,11.30
2022-10-18T02:39:08.910Z,17.80
2022-10-18T02:41:37.498Z,11.90
2022-10-18T02:44:06.074Z,8.43
2022-10-18T02:46:36.859Z,11.70
2022-10-18T02:49:06.583Z,8.25
2022-10-18T02:51:36.984Z,10.65
2022-10-18T02:54:05.571Z,11.85
2022-10-18T02:56:34.455Z,12.43
2022-10-18T02:59:04.956Z,8.80
2022-10-18T03:01:33.957Z,13.77
2022-10-18T03:04:02.440Z,12.40
2022-10-18T03:06:33.509Z,8.60
2022-10-18T03:09:04.866Z,10.93
2022-10-18T03:11:34.639Z,10.68
2022-10-18T03:14:03.117Z,8.40
2022-10-18T03:16:31.727Z,7.80
2022-10-18T03:19:01.443Z,8.98
2022-10-18T03:21:29.760Z,10.50
2022-10-18T03:23:59.786Z,8.30
2022-10-18T03:26:29.364Z,8.10
2022-10-18T03:28:57.720Z,7.80
2022-10-18T03:31:26.329Z,11.10
2022-10-18T03:33:54.985Z,7.85
2022-10-18T03:36:23.515Z,9.90
2022-10-18T03:38:51.738Z,8.80
2022-10-18T03:41:21.862Z,10.88
2022-10-18T03:43:50.347Z,8.85
2022-10-18T03:46:18.609Z,16.60
2022-10-18T03:48:46.884Z,7.95
2022-10-18T03:51:15.111Z,10.32
2022-10-18T03:53:43.425Z,7.95
2022-10-18T03:56:11.964Z,10.88
2022-10-18T03:58:43.227Z,9.43
2022-10-18T04:01:12.369Z,14.98
2022-10-18T04:03:41.810Z,16.10
2022-10-18T04:06:10.103Z,23.73
2022-10-18T04:08:38.355Z,17.42
2022-10-18T04:11:09.906Z,28.42
2022-10-18T04:13:38.124Z,14.07
2022-10-18T04:16:08.535Z,19.67
2022-10-18T04:18:36.809Z,9.57
2022-10-18T04:21:05.367Z,14.25
2022-10-18T04:23:38.779Z,23.92
2022-10-18T04:26:08.073Z,12.80
2022-10-18T04:28:40.448Z,10.90
2022-10-18T04:31:12.466Z,12.70
2022-10-18T04:33:40.811Z,12.63
2022-10-18T04:36:09.591Z,11.85
2022-10-18T04:38:41.918Z,10.55
2022-10-18T04:41:10.664Z,15.52
2022-10-18T04:43:39.030Z,15.60
2022-10-18T04:46:09.448Z,17.33
2022-10-18T04:48:38.738Z,16.13
2022-10-18T04:51:07.532Z,20.88
2022-10-18T04:53:35.817Z,16.17
2022-10-18T04:56:04.414Z,18.38
2022-10-18T04:58:32.728Z,23.17
2022-10-18T05:01:00.947Z,13.05
2022-10-18T05:03:31.949Z,19.13
2022-10-18T05:06:02.871Z,13.43
2022-10-18T05:08:33.976Z,12.80
2022-10-18T05:11:02.766Z,16.67
2022-10-18T05:13:31.840Z,37.70
2022-10-18T05:16:00.776Z,20.70
2022-10-18T05:18:30.683Z,15.40
2022-10-18T05:20:59.629Z,26.75
2022-10-18T05:23:27.912Z,66.88
2022-10-18T05:25:56.949Z,17.20
2022-10-18T05:28:42.148Z,34.90
2022-10-18T05:31:18.901Z,38.65
2022-10-18T05:34:01.552Z,30.55
2022-10-18T05:36:29.888Z,27.08
2022-10-18T05:39:01.037Z,34.05
2022-10-18T05:41:32.903Z,32.70
2022-10-18T05:44:04.915Z,34.92
2022-10-18T05:46:33.631Z,34.97
2022-10-18T05:49:05.196Z,54.55
2022-10-18T05:51:33.611Z,21.20
2022-10-18T05:54:01.781Z,13.68
2022-10-18T05:56:30.122Z,32.05
2022-10-18T05:59:10.358Z,16.92
2022-10-18T06:01:44.788Z,46.40
2022-10-18T06:04:15.248Z,48.05
2022-10-18T06:06:53.973Z,41.78
2022-10-18T06:09:34.153Z,11.80
2022-10-18T06:12:10.031Z,17.60
2022-10-18T06:14:45.213Z,50.25
2022-10-18T06:17:31.806Z,54.08
2022-10-18T06:20:02.372Z,35.75
2022-10-18T06:22:40.828Z,15.98
2022-10-18T06:25:14.144Z,17.83
2022-10-18T06:27:44.489Z,18.35
2022-10-18T06:30:13.293Z,18.33
2022-10-18T06:32:41.504Z,15.60
2022-10-18T06:35:11.492Z,21.30
2022-10-18T06:37:39.797Z,24.88
2022-10-18T06:40:10.824Z,14.27
2022-10-18T06:42:40.289Z,18.95
2022-10-18T06:45:10.861Z,15.65
2022-10-18T06:47:49.005Z,23.70
2022-10-18T06:50:19.679Z,9.00
2022-10-18T06:52:48.848Z,11.18
2022-10-18T06:55:17.270Z,7.85
2022-10-18T06:57:45.528Z,12.52
2022-10-18T07:00:15.477Z,13.45
2022-10-18T07:02:43.647Z,7.72
2022-10-18T07:05:12.448Z,9.73
2022-10-18T07:07:42.379Z,11.25
2022-10-18T07:10:13.080Z,9.45
2022-10-18T07:12:41.572Z,8.15
2022-10-18T07:15:10.951Z,12.98
2022-10-18T07:17:39.153Z,47.97
2022-10-18T07:20:08.417Z,28.25
2022-10-18T07:22:38.139Z,11.10
2022-10-18T07:25:08.962Z,48.20
2022-10-18T07:27:38.824Z,16.77
2022-10-18T07:30:08.532Z,14.00
2022-10-18T07:32:36.931Z,13.20
2022-10-18T07:35:05.616Z,22.25
2022-10-18T07:37:34.030Z,19.75
2022-10-18T07:40:02.642Z,27.90
2022-10-18T07:42:32.313Z,27.05
2022-10-18T07:45:00.481Z,30.02
2022-10-18T07:47:31.259Z,34.47
2022-10-18T07:50:02.573Z,93.57
2022-10-18T07:52:30.781Z,20.67
2022-10-18T07:54:58.978Z,24.10
2022-10-18T07:57:27.220Z,26.02
2022-10-18T07:59:58.182Z,21.15
2022-10-18T08:02:26.514Z,58.60
2022-10-18T08:05:00.669Z,42.78
2022-10-18T08:07:29.045Z,42.90
2022-10-18T08:09:57.252Z,26.25
2022-10-18T08:12:25.477Z,11.52
2022-10-18T08:14:53.709Z,9.50
2022-10-18T08:17:25.383Z,12.90
2022-10-18T08:20:11.266Z,15.30
2022-10-18T08:22:55.435Z,21.20
2022-10-18T08:25:26.223Z,20.98
2022-10-18T08:27:54.617Z,16.52
2022-10-18T08:30:23.402Z,13.65
2022-10-18T08:32:53.311Z,25.13
2022-10-18T08:35:21.531Z,12.40
2022-10-18T08:37:49.734Z,9.43
2022-10-18T08:40:18.338Z,13.75
2022-10-18T08:43:00.670Z,9.98
2022-10-18T08:45:41.874Z,9.82
2022-10-18T08:48:21.850Z,12.02
2022-10-18T08:50:52.159Z,8.50
2022-10-18T08:53:27.574Z,9.38
2022-10-18T08:56:02.120Z,8.68
2022-10-18T08:58:33.410Z,7.55
2022-10-18T09:01:18.328Z,9.95
2022-10-18T09:04:23.410Z,9.07
2022-10-18T09:07:41.298Z,8.02
2022-10-18T09:10:20.674Z,8.00
2022-10-18T09:13:18.727Z,9.45
2022-10-18T09:15:53.178Z,9.05
2022-10-18T09:18:49.255Z,8.20
2022-10-18T09:21:23.024Z,10.27
2022-10-18T09:23:59.742Z,9.57
2022-10-18T09:26:37.887Z,11.93
2022-10-18T09:29:34.046Z,8.38
2022-10-18T09:32:18.594Z,9.02
2022-10-18T09:34:55.017Z,9.35
2022-10-18T09:37:28.816Z,9.38
2022-10-18T09:40:05.833Z,11.05
2022-10-18T09:42:39.300Z,10.32
2022-10-18T09:45:26.321Z,14.50
2022-10-18T09:48:04.933Z,10.50
2022-10-18T09:50:39.457Z,9.75
2022-10-18T09:53:20.653Z,10.30
2022-10-18T09:56:01.963Z,10.95
2022-10-18T09:58:42.565Z,11.23
2022-10-18T10:01:15.782Z,11.00
2022-10-18T10:03:44.400Z,10.02
2022-10-18T10:06:27.979Z,14.18
2022-10-18T10:09:09.029Z,10.38
2022-10-18T10:11:40.579Z,11.23
2022-10-18T10:16:54.159Z,11.10
2022-10-18T10:19:29.378Z,10.73
2022-10-18T10:22:06.357Z,10.43
2022-10-18T10:24:51.628Z,11.60
2022-10-18T10:27:23.252Z,10.38
2022-10-18T10:30:02.792Z,9.85
2022-10-18T10:32:50.167Z,13.38
2022-10-18T10:38:33.325Z,11.18
2022-10-18T10:41:02.995Z,8.85
2022-10-18T10:43:38.058Z,9.55
2022-10-18T10:46:10.870Z,10.68
2022-10-18T10:48:49.560Z,9.18
2022-10-18T10:51:30.011Z,10.10
2022-10-18T10:54:04.605Z,8.88
2022-10-18T10:56:37.930Z,6.18
2022-10-18T10:59:15.542Z,9.13
2022-10-18T11:01:43.951Z,8.75
2022-10-18T11:04:29.032Z,6.90
2022-10-18T11:07:06.108Z,6.72
2022-10-18T11:09:58.231Z,11.95
2022-10-18T11:12:34.498Z,7.75
2022-10-18T11:15:18.339Z,10.20
2022-10-18T11:18:01.251Z,9.70
2022-10-18T11:20:34.660Z,9.30
2022-10-18T11:23:07.370Z,7.40
2022-10-18T11:26:09.570Z,7.25
2022-10-18T11:29:02.996Z,7.95
2022-10-18T11:31:36.920Z,8.27
2022-10-18T11:34:29.077Z,9.32
2022-10-18T11:37:27.203Z,6.80
2022-10-18T11:40:09.734Z,6.53
2022-10-18T11:42:51.930Z,7.13
2022-10-18T11:45:32.181Z,9.20
2022-10-18T11:48:16.291Z,9.00
2022-10-18T11:50:53.877Z,8.35
2022-10-18T11:53:30.740Z,8.10
2022-10-18T11:56:09.534Z,7.50
2022-10-18T11:58:58.084Z,6.55
2022-10-18T12:01:37.960Z,7.05
2022-10-18T12:04:14.460Z,5.53
2022-10-18T12:06:45.169Z,7.55
2022-10-18T12:09:25.024Z,12.98
2022-10-18T12:11:58.447Z,8.38
2022-10-18T12:14:31.495Z,6.45
2022-10-18T12:17:39.862Z,5.82
2022-10-18T12:19:59.539Z,8.45
2022-10-18T12:22:35.234Z,8.57
2022-10-18T12:25:04.186Z,6.97
2022-10-18T12:27:42.631Z,7.20
2022-10-18T12:30:21.199Z,9.80
2022-10-18T12:33:02.205Z,5.40
2022-10-18T12:35:56.429Z,6.60
2022-10-18T12:38:28.676Z,7.82
2022-10-18T12:40:58.841Z,6.15
2022-10-18T12:43:32.550Z,6.35
2022-10-18T12:46:03.696Z,6.90
2022-10-18T12:48:38.712Z,8.70
2022-10-18T12:51:15.220Z,5.97
2022-10-18T12:53:45.893Z,5.13
2022-10-18T12:56:38.735Z,4.88
2022-10-18T12:59:41.385Z,6.05
2022-10-18T13:02:26.992Z,5.97
2022-10-18T13:07:40.999Z,8.65
2022-10-18T13:10:42.455Z,7.13
2022-10-18T13:13:50.552Z,6.88
2022-10-18T13:16:48.974Z,7.25
2022-10-18T13:19:26.041Z,6.00
2022-10-18T13:22:13.608Z,4.47
2022-10-18T13:24:46.575Z,10.45
2022-10-18T13:27:36.642Z,6.32
2022-10-18T13:30:32.629Z,7.72
2022-10-18T13:33:17.627Z,9.50
2022-10-18T13:35:57.527Z,10.77
2022-10-18T13:38:41.469Z,6.13
2022-10-18T13:41:13.171Z,6.65
2022-10-18T13:44:28.525Z,9.20
2022-10-18T13:47:36.872Z,6.68
2022-10-18T13:50:32.919Z,6.85
2022-10-18T13:53:43.586Z,6.70
2022-10-18T13:56:57.379Z,7.82
2022-10-18T14:00:01.608Z,7.80
2022-10-18T14:03:03.908Z,5.63
2022-10-18T14:05:51.262Z,6.65
2022-10-18T14:08:23.910Z,7.57
2022-10-18T14:11:04.352Z,9.82
2022-10-18T14:13:44.209Z,5.95
2022-10-18T14:16:31.123Z,6.20
2022-10-18T14:19:12.756Z,7.30
2022-10-18T14:21:45.954Z,9.35
2022-10-18T14:24:22.775Z,6.30
2022-10-18T14:27:12.815Z,5.22
2022-10-18T14:29:41.822Z,8.32
2022-10-18T14:32:12.387Z,6.28
2022-10-18T14:34:45.547Z,8.65
2022-10-18T14:37:27.880Z,7.85
2022-10-18T14:39:57.084Z,6.88
2022-10-18T14:42:28.953Z,10.23
2022-10-18T14:44:57.620Z,7.10
2022-10-18T14:47:27.597Z,8.13
2022-10-18T14:49:57.756Z,7.70
2022-10-18T14:52:35.470Z,5.30
2022-10-18T14:55:04.695Z,7.10
2022-10-18T14:57:38.620Z,8.35
2022-10-18T15:02:53.049Z,9.40
2022-10-18T15:05:25.479Z,9.73
2022-10-18T15:07:54.483Z,7.57
2022-10-18T15:10:27.959Z,10.15
2022-10-18T15:13:16.105Z,7.70
2022-10-18T15:15:45.732Z,8.23
2022-10-18T15:18:25.779Z,11.52
2022-10-18T15:21:23.414Z,5.25
2022-10-18T15:23:54.937Z,8.70
2022-10-18T15:26:32.082Z,7.13
2022-10-18T15:29:20.757Z,10.05
2022-10-18T15:31:50.886Z,6.57
2022-10-18T15:34:23.563Z,8.18
2022-10-18T15:36:54.316Z,9.63
2022-10-18T15:39:31.690Z,10.10
2022-10-18T15:42:01.670Z,10.68
2022-10-18T15:44:50.900Z,11.55
2022-10-18T15:47:25.114Z,9.85
2022-10-18T15:49:56.748Z,9.85
2022-10-18T15:52:39.343Z,7.30
2022-10-18T15:55:48.868Z,8.80
2022-10-18T15:58:21.973Z,7.18
2022-10-18T16:00:54.678Z,9.90
2022-10-18T16:03:24.437Z,9.48
2022-10-18T16:05:57.660Z,10.73
2022-10-18T16:08:30.396Z,6.97
2022-10-18T16:10:59.806Z,7.63
2022-10-18T16:13:28.248Z,8.38
2022-10-18T16:16:00.801Z,8.75
2022-10-18T16:18:29.600Z,9.48
2022-10-18T16:20:58.298Z,9.27
2022-10-18T16:23:29.580Z,8.27
2022-10-18T16:25:58.176Z,8.20
2022-10-18T16:28:28.065Z,9.15
2022-10-18T16:31:01.063Z,11.48
2022-10-18T16:33:29.425Z,10.50
2022-10-18T16:35:58.381Z,9.38
2022-10-18T16:38:32.706Z,13.75
2022-10-18T16:41:04.372Z,12.45
2022-10-18T16:43:33.104Z,12.95
2022-10-18T16:46:03.768Z,15.15
2022-10-18T16:48:32.583Z,11.52
2022-10-18T16:51:01.021Z,13.43
2022-10-18T16:53:29.382Z,11.05
2022-10-18T16:56:00.014Z,13.30
2022-10-18T16:58:31.261Z,15.15
2022-10-18T17:01:09.159Z,10.77
2022-10-18T17:04:01.128Z,9.43
2022-10-18T17:06:32.364Z,8.52
2022-10-18T17:09:16.173Z,9.65
2022-10-18T17:11:47.717Z,14.77
2022-10-18T17:14:16.801Z,15.65
2022-10-18T17:16:57.620Z,14.82
2022-10-18T17:19:27.020Z,14.05
2022-10-18T17:22:02.390Z,20.33
2022-10-18T17:24:50.859Z,25.35
2022-10-18T17:27:19.221Z,22.40
2022-10-18T17:29:53.322Z,23.20
2022-10-18T17:32:26.286Z,24.02
2022-10-18T17:34:56.747Z,30.67
2022-10-18T17:37:25.165Z,28.88
2022-10-18T17:39:53.411Z,32.03
2022-10-18T17:42:22.001Z,32.13
2022-10-18T17:44:54.222Z,22.00
2022-10-18T17:47:26.895Z,23.50
2022-10-18T17:49:55.548Z,11.45
2022-10-18T17:52:25.152Z,11.77
2022-10-18T17:54:54.837Z,12.35
2022-10-18T17:57:23.072Z,9.43
2022-10-18T17:59:54.805Z,11.27
2022-10-18T18:02:26.548Z,11.18
2022-10-18T18:04:57.365Z,11.45
2022-10-18T18:07:27.869Z,11.07
2022-10-18T18:09:57.304Z,9.73
2022-10-18T18:12:25.792Z,10.45
2022-10-18T18:14:54.112Z,10.32
2022-10-18T18:17:33.773Z,11.73
2022-10-18T18:20:05.099Z,11.57
2022-10-18T18:22:36.873Z,17.55
2022-10-18T18:25:10.221Z,12.70
2022-10-18T18:27:40.297Z,11.57
2022-10-18T18:30:10.925Z,15.20
2022-10-18T18:32:40.861Z,14.77
2022-10-18T18:35:11.701Z,15.88
2022-10-18T18:37:40.258Z,12.25
2022-10-18T18:40:10.061Z,11.52
2022-10-18T18:42:38.638Z,10.13
2022-10-18T18:45:08.343Z,12.73
2022-10-18T18:47:36.931Z,15.93
2022-10-18T18:50:08.732Z,8.13
2022-10-18T18:52:39.303Z,10.43
2022-10-18T18:55:08.879Z,11.55
2022-10-18T18:57:37.230Z,12.90
2022-10-18T19:00:10.787Z,12.10
2022-10-18T19:02:39.006Z,10.13
2022-10-18T19:05:08.870Z,17.85
2022-10-18T19:07:38.506Z,11.00
2022-10-18T19:10:08.499Z,13.82
2022-10-18T19:12:36.841Z,13.57
2022-10-18T19:15:06.350Z,10.38
2022-10-18T19:17:35.857Z,9.30
2022-10-18T19:20:06.316Z,12.52
2022-10-18T19:22:34.572Z,10.13
2022-10-18T19:25:04.162Z,12.63
2022-10-18T19:27:32.796Z,12.02
2022-10-18T19:30:01.874Z,18.13
2022-10-18T19:32:30.060Z,10.40
2022-10-18T19:34:58.661Z,11.93
2022-10-18T19:37:26.983Z,13.63
2022-10-18T19:39:56.356Z,11.18
2022-10-18T19:42:31.100Z,11.15
2022-10-18T19:45:00.817Z,10.70
2022-10-18T19:47:31.749Z,15.70
2022-10-18T19:50:00.149Z,13.43
2022-10-18T19:52:30.605Z,13.32
2022-10-18T19:54:59.131Z,33.65
2022-10-18T19:57:30.020Z,22.15
2022-10-18T20:00:02.651Z,13.85
2022-10-18T20:02:33.832Z,15.02
2022-10-18T20:05:09.051Z,15.98
2022-10-18T20:07:41.137Z,13.25
2022-10-18T20:10:10.442Z,14.82
2022-10-18T20:12:40.714Z,9.45
2022-10-18T20:15:13.666Z,10.90
2022-10-18T20:17:42.080Z,10.20
2022-10-18T20:20:11.924Z,15.70
2022-10-18T20:22:40.315Z,9.95
2022-10-18T20:25:09.636Z,9.32
2022-10-18T20:27:40.317Z,10.05
2022-10-18T20:30:11.387Z,11.95
2022-10-18T20:32:42.780Z,7.55
2022-10-18T20:35:11.504Z,9.90
2022-10-18T20:37:41.354Z,7.78
2022-10-18T20:40:12.580Z,14.85
2022-10-18T20:42:44.531Z,9.70
2022-10-18T20:45:13.539Z,10.90
2022-10-18T20:47:42.404Z,10.15
2022-10-18T20:50:11.463Z,7.95
2022-10-18T20:52:39.882Z,12.00
2022-10-18T20:55:08.950Z,11.15
2022-10-18T20:57:37.574Z,8.82
2022-10-18T21:00:11.661Z,9.60
2022-10-18T21:02:46.319Z,15.63
2022-10-18T21:05:18.350Z,8.98
2022-10-18T21:07:46.572Z,13.43
2022-10-18T21:10:14.957Z,10.77
2022-10-18T21:12:43.552Z,10.20
2022-10-18T21:15:19.889Z,14.10
2022-10-18T21:17:52.193Z,9.07
2022-10-18T21:20:21.838Z,18.58
2022-10-18T21:22:57.388Z,13.30
2022-10-18T21:25:26.733Z,12.20
2022-10-18T21:27:56.189Z,10.55
2022-10-18T21:30:26.609Z,9.60
2022-10-18T21:33:04.665Z,11.10
2022-10-18T21:35:40.507Z,14.38
2022-10-18T21:38:10.166Z,7.43
2022-10-18T21:40:44.625Z,11.65
2022-10-18T21:43:16.500Z,18.85
2022-10-18T21:45:46.628Z,11.13
2022-10-18T21:48:15.866Z,16.60
2022-10-18T21:50:46.492Z,16.25
2022-10-18T21:53:16.726Z,13.35
2022-10-18T21:55:44.961Z,12.25
2022-10-18T21:58:13.472Z,7.72
2022-10-18T22:00:41.919Z,12.20
2022-10-18T22:03:13.980Z,9.75
2022-10-18T22:05:42.491Z,9.40
2022-10-18T22:08:12.913Z,7.97
2022-10-18T22:10:47.015Z,12.98
2022-10-18T22:13:24.740Z,9.65
2022-10-18T22:15:55.533Z,8.05
2022-10-18T22:18:27.017Z,9.00
2022-10-18T22:20:56.480Z,10.82
2022-10-18T22:23:24.940Z,9.68
2022-10-18T22:25:56.109Z,17.98
2022-10-18T22:28:33.776Z,9.68
2022-10-18T22:31:07.174Z,14.70
2022-10-18T22:33:44.611Z,13.82
2022-10-18T22:36:15.390Z,12.48
2022-10-18T22:38:45.320Z,12.07
2022-10-18T22:41:16.527Z,10.20
2022-10-18T22:43:45.048Z,11.55
2022-10-18T22:46:15.107Z,12.55
2022-10-18T22:48:45.423Z,12.18
2022-10-18T22:51:14.815Z,12.27
2022-10-18T22:53:51.487Z,28.15
2022-10-18T22:56:24.592Z,14.48
2022-10-18T22:58:55.648Z,17.25
2022-10-18T23:01:25.883Z,22.20
2022-10-18T23:04:05.032Z,12.60
2022-10-18T23:06:37.615Z,12.57
2022-10-18T23:09:15.056Z,10.38
2022-10-18T23:11:44.362Z,12.43
2022-10-18T23:14:30.483Z,11.65
2022-10-18T23:16:58.716Z,12.93
2022-10-18T23:19:28.520Z,11.10
2022-10-18T23:21:58.164Z,11.02
2022-10-18T23:24:26.429Z,10.25
2022-10-18T23:26:54.820Z,9.50
2022-10-18T23:29:23.330Z,6.97
2022-10-18T23:31:51.559Z,7.93
2022-10-18T23:34:27.289Z,9.10
2022-10-18T23:36:56.520Z,13.68
2022-10-18T23:39:25.074Z,9.77
2022-10-18T23:41:55.397Z,11.45
2022-10-18T23:44:24.211Z,8.25
2022-10-18T23:46:54.908Z,9.50
2022-10-18T23:49:26.092Z,8.65
2022-10-18T23:51:58.052Z,11.88
2022-10-18T23:54:26.546Z,11.57
2022-10-18T23:56:54.774Z,9.43
2022-10-18T23:59:31.206Z,10.00
